sensor_id;sensor_type;location;lat;lon;timestamp;pressure;altitude;pressure_sealevel;temperature;humidity
69184;BME280;56291;53.960;27.550;2023-03-04T02:02:04;97503.44;;;-1.18;79.90
69184;BME280;56291;53.960;27.550;2023-03-04T02:05:29;97508.59;;;-1.18;79.63
69184;BME280;56291;53.960;27.550;2023-03-04T02:08:21;97500.88;;;-1.18;80.00
69184;BME280;56291;53.960;27.550;2023-03-04T02:10:59;97505.94;;;-1.16;80.04
69184;BME280;56291;53.960;27.550;2023-03-04T02:13:28;97495.63;;;-1.16;79.20
69184;BME280;56291;53.960;27.550;2023-03-04T02:16:05;97493.97;;;-1.17;79.72
69184;BME280;56291;53.960;27.550;2023-03-04T02:18:46;97483.66;;;-1.17;79.27
69184;BME280;56291;53.960;27.550;2023-03-04T02:21:55;97485.31;;;-1.16;79.67
69184;BME280;56291;53.960;27.550;2023-03-04T02:27:47;97472.28;;;-1.15;79.63
69184;BME280;56291;53.960;27.550;2023-03-04T02:30:19;97474.75;;;-1.13;78.62
69184;BME280;56291;53.960;27.550;2023-03-04T02:32:56;97477.44;;;-1.15;79.02
69184;BME280;56291;53.960;27.550;2023-03-04T02:35:30;97465.47;;;-1.16;79.78
69184;BME280;56291;53.960;27.550;2023-03-04T02:38:07;97462.78;;;-1.14;79.84
69184;BME280;56291;53.960;27.550;2023-03-04T02:50:15;97438.84;;;-1.16;79.13
69184;BME280;56291;53.960;27.550;2023-03-04T02:52:44;97426.03;;;-1.18;79.14
69184;BME280;56291;53.960;27.550;2023-03-04T02:55:31;97414.78;;;-1.17;79.34
69184;BME280;56291;53.960;27.550;2023-03-04T02:58:20;97421.72;;;-1.17;79.25
69184;BME280;56291;53.960;27.550;2023-03-04T03:01:09;97413.06;;;-1.16;78.85
69184;BME280;56291;53.960;27.550;2023-03-04T03:03:46;97417.38;;;-1.17;79.21
69184;BME280;56291;53.960;27.550;2023-03-04T03:06:19;97404.59;;;-1.18;79.53
69184;BME280;56291;53.960;27.550;2023-03-04T03:09:23;97386.41;;;-1.17;78.67
69184;BME280;56291;53.960;27.550;2023-03-04T03:11:57;97375.38;;;-1.19;79.35
69184;BME280;56291;53.960;27.550;2023-03-04T03:18:03;97375.38;;;-1.19;78.93
69184;BME280;56291;53.960;27.550;2023-03-04T03:20:30;97368.56;;;-1.20;79.33
69184;BME280;56291;53.960;27.550;2023-03-04T03:26:32;97353.19;;;-1.22;78.94
69184;BME280;56291;53.960;27.550;2023-03-04T03:29:09;97335.84;;;-1.19;78.77
69184;BME280;56291;53.960;27.550;2023-03-04T03:31:43;97341.22;;;-1.23;79.51
69184;BME280;56291;53.960;27.550;2023-03-04T03:34:19;97319.78;;;-1.23;78.40
69184;BME280;56291;53.960;27.550;2023-03-04T03:36:58;97327.63;;;-1.25;79.37
69184;BME280;56291;53.960;27.550;2023-03-04T03:39:50;97312.97;;;-1.24;79.50
69184;BME280;56291;53.960;27.550;2023-03-04T03:42:30;97304.53;;;-1.26;78.70
69184;BME280;56291;53.960;27.550;2023-03-04T03:45:19;97296.78;;;-1.26;79.69
69184;BME280;56291;53.960;27.550;2023-03-04T03:48:18;97296.78;;;-1.26;78.91
69184;BME280;56291;53.960;27.550;2023-03-04T03:50:54;97295.84;;;-1.25;78.96
69184;BME280;56291;53.960;27.550;2023-03-04T03:53:28;97296.06;;;-1.28;78.81
69184;BME280;56291;53.960;27.550;2023-03-04T03:56:20;97288.31;;;-1.28;78.79
69184;BME280;56291;53.960;27.550;2023-03-04T03:59:09;97289.13;;;-1.28;79.33
69184;BME280;56291;53.960;27.550;2023-03-04T04:01:49;97287.41;;;-1.27;78.63
69184;BME280;56291;53.960;27.550;2023-03-04T04:04:28;97283.88;;;-1.26;78.97
69184;BME280;56291;53.960;27.550;2023-03-04T04:07:49;97278.81;;;-1.28;78.79
69184;BME280;56291;53.960;27.550;2023-03-04T04:14:02;97257.47;;;-1.30;78.44
69184;BME280;56291;53.960;27.550;2023-03-04T04:16:33;97255.81;;;-1.31;78.76
69184;BME280;56291;53.960;27.550;2023-03-04T04:19:24;97246.34;;;-1.30;78.15
69184;BME280;56291;53.960;27.550;2023-03-04T04:21:53;97242.81;;;-1.29;78.12
69184;BME280;56291;53.960;27.550;2023-03-04T04:24:25;97246.34;;;-1.30;78.78
69184;BME280;56291;53.960;27.550;2023-03-04T04:27:01;97245.75;;;-1.34;78.38
69184;BME280;56291;53.960;27.550;2023-03-04T04:30:02;97238.00;;;-1.34;78.41
69184;BME280;56291;53.960;27.550;2023-03-04T04:32:56;97217.38;;;-1.34;78.01
69184;BME280;56291;53.960;27.550;2023-03-04T04:35:49;97228.50;;;-1.33;78.67
69184;BME280;56291;53.960;27.550;2023-03-04T04:38:21;97224.19;;;-1.33;78.58
69184;BME280;56291;53.960;27.550;2023-03-04T04:44:11;97211.41;;;-1.34;77.88
69184;BME280;56291;53.960;27.550;2023-03-04T04:46:48;97208.81;;;-1.34;78.25
69184;BME280;56291;53.960;27.550;2023-03-04T04:49:39;97214.09;;;-1.36;77.83
69184;BME280;56291;53.960;27.550;2023-03-04T04:52:13;97195.19;;;-1.36;78.44
69184;BME280;56291;53.960;27.550;2023-03-04T04:58:20;97190.88;;;-1.36;78.85
69184;BME280;56291;53.960;27.550;2023-03-04T05:03:59;97170.31;;;-1.38;78.65
69184;BME280;56291;53.960;27.550;2023-03-04T05:06:38;97174.69;;;-1.38;78.46
69184;BME280;56291;53.960;27.550;2023-03-04T05:09:31;97179.03;;;-1.39;78.80
69184;BME280;56291;53.960;27.550;2023-03-04T05:15:11;97180.66;;;-1.38;78.80
69184;BME280;56291;53.960;27.550;2023-03-04T05:17:40;97183.22;;;-1.38;78.87
69184;BME280;56291;53.960;27.550;2023-03-04T05:20:10;97173.03;;;-1.39;78.95
69184;BME280;56291;53.960;27.550;2023-03-04T05:22:42;97183.34;;;-1.39;78.35
69184;BME280;56291;53.960;27.550;2023-03-04T05:25:08;97154.16;;;-1.40;79.12
69184;BME280;56291;53.960;27.550;2023-03-04T05:27:35;97179.03;;;-1.39;79.01
69184;BME280;56291;53.960;27.550;2023-03-04T05:30:07;97173.03;;;-1.39;78.40
69184;BME280;56291;53.960;27.550;2023-03-04T05:32:36;97170.56;;;-1.41;78.48
69184;BME280;56291;53.960;27.550;2023-03-04T05:35:05;97176.44;;;-1.39;78.68
69184;BME280;56291;53.960;27.550;2023-03-04T05:37:55;97167.75;;;-1.38;78.66
69184;BME280;56291;53.960;27.550;2023-03-04T05:40:24;97170.25;;;-1.36;78.24
69184;BME280;56291;53.960;27.550;2023-03-04T05:42:53;97172.69;;;-1.34;78.77
69184;BME280;56291;53.960;27.550;2023-03-04T05:45:23;97171.88;;;-1.35;78.37
69184;BME280;56291;53.960;27.550;2023-03-04T05:47:57;97157.22;;;-1.34;78.08
69184;BME280;56291;53.960;27.550;2023-03-04T05:50:25;97156.28;;;-1.33;78.30
69184;BME280;56291;53.960;27.550;2023-03-04T05:52:59;97137.16;;;-1.31;78.29
69184;BME280;56291;53.960;27.550;2023-03-04T05:55:36;97138.81;;;-1.30;78.53
69184;BME280;56291;53.960;27.550;2023-03-04T05:58:13;97135.44;;;-1.30;78.41
69184;BME280;56291;53.960;27.550;2023-03-04T06:01:06;97145.13;;;-1.34;77.95
69184;BME280;56291;53.960;27.550;2023-03-04T06:03:32;97145.63;;;-1.29;78.71
69184;BME280;56291;53.960;27.550;2023-03-04T06:06:01;97143.97;;;-1.30;78.33
69184;BME280;56291;53.960;27.550;2023-03-04T06:08:49;97150.66;;;-1.27;78.69
69184;BME280;56291;53.960;27.550;2023-03-04T06:11:43;97153.81;;;-1.24;78.21
69184;BME280;56291;53.960;27.550;2023-03-04T06:14:09;97144.47;;;-1.25;78.59
69184;BME280;56291;53.960;27.550;2023-03-04T06:16:58;97136.47;;;-1.22;78.81
69184;BME280;56291;53.960;27.550;2023-03-04T06:19:30;97137.41;;;-1.23;78.81
69184;BME280;56291;53.960;27.550;2023-03-04T06:22:24;97132.84;;;-1.19;77.80
69184;BME280;56291;53.960;27.550;2023-03-04T06:24:51;97123.34;;;-1.18;78.58
69184;BME280;56291;53.960;27.550;2023-03-04T06:27:45;97113.75;;;-1.16;77.97
69184;BME280;56291;53.960;27.550;2023-03-04T06:32:52;97123.00;;;-1.14;78.70
69184;BME280;56291;53.960;27.550;2023-03-04T06:35:26;97117.50;;;-1.09;78.99
69184;BME280;56291;53.960;27.550;2023-03-04T06:37:55;97120.06;;;-1.09;79.07
69184;BME280;56291;53.960;27.550;2023-03-04T06:40:38;97118.19;;;-1.07;78.34
69184;BME280;56291;53.960;27.550;2023-03-04T06:43:05;97113.63;;;-1.04;78.73
69184;BME280;56291;53.960;27.550;2023-03-04T06:45:33;97112.56;;;-1.01;78.92
69184;BME280;56291;53.960;27.550;2023-03-04T06:48:02;97109.88;;;-0.99;78.24
69184;BME280;56291;53.960;27.550;2023-03-04T06:50:56;97121.69;;;-0.97;79.88
69184;BME280;56291;53.960;27.550;2023-03-04T06:53:39;97115.47;;;-0.94;78.66
69184;BME280;56291;53.960;27.550;2023-03-04T06:56:16;97124.28;;;-0.97;79.31
69184;BME280;56291;53.960;27.550;2023-03-04T06:58:58;97111.28;;;-0.95;79.05
69184;BME280;56291;53.960;27.550;2023-03-04T07:01:59;97107.84;;;-0.96;78.32
69184;BME280;56291;53.960;27.550;2023-03-04T07:04:47;97117.38;;;-0.96;79.29
69184;BME280;56291;53.960;27.550;2023-03-04T07:07:36;97104.47;;;-0.96;79.03
69184;BME280;56291;53.960;27.550;2023-03-04T07:10:28;97107.75;;;-0.94;79.68
69184;BME280;56291;53.960;27.550;2023-03-04T07:16:08;97114.44;;;-0.92;79.91
69184;BME280;56291;53.960;27.550;2023-03-04T07:19:14;97114.44;;;-0.92;79.50
69184;BME280;56291;53.960;27.550;2023-03-04T07:22:05;97123.00;;;-0.91;79.08
69184;BME280;56291;53.960;27.550;2023-03-04T07:24:32;97115.28;;;-0.91;79.71
69184;BME280;56291;53.960;27.550;2023-03-04T07:27:13;97121.38;;;-0.92;79.87
69184;BME280;56291;53.960;27.550;2023-03-04T07:29:50;97140.13;;;-0.90;80.03
69184;BME280;56291;53.960;27.550;2023-03-04T07:32:19;97128.97;;;-0.91;80.23
69184;BME280;56291;53.960;27.550;2023-03-04T07:34:48;97134.84;;;-0.89;80.20
69184;BME280;56291;53.960;27.550;2023-03-04T07:37:19;97134.50;;;-0.84;79.22
69184;BME280;56291;53.960;27.550;2023-03-04T07:40:01;97129.34;;;-0.84;79.92
69184;BME280;56291;53.960;27.550;2023-03-04T07:42:36;97115.59;;;-0.84;79.56
69184;BME280;56291;53.960;27.550;2023-03-04T07:45:04;97119.94;;;-0.85;80.70
69184;BME280;56291;53.960;27.550;2023-03-04T07:47:44;97133.91;;;-0.76;80.34
69184;BME280;56291;53.960;27.550;2023-03-04T07:50:11;97124.97;;;-0.83;79.44
69184;BME280;56291;53.960;27.550;2023-03-04T07:52:48;97121.13;;;-0.89;80.33
69184;BME280;56291;53.960;27.550;2023-03-04T07:55:23;97117.59;;;-0.88;79.85
69184;BME280;56291;53.960;27.550;2023-03-04T07:57:54;97119.94;;;-0.85;79.82
69184;BME280;56291;53.960;27.550;2023-03-04T08:00:33;97117.94;;;-0.81;80.23
69184;BME280;56291;53.960;27.550;2023-03-04T08:03:21;97127.69;;;-0.74;80.19
69184;BME280;56291;53.960;27.550;2023-03-04T08:12:27;97166.41;;;-0.62;79.67
69184;BME280;56291;53.960;27.550;2023-03-04T08:14:54;97166.88;;;-0.68;78.85
69184;BME280;56291;53.960;27.550;2023-03-04T08:17:21;97168.88;;;-0.72;78.28
69184;BME280;56291;53.960;27.550;2023-03-04T08:20:00;97154.44;;;-0.75;79.20
69184;BME280;56291;53.960;27.550;2023-03-04T08:22:47;97160.88;;;-0.69;79.32
69184;BME280;56291;53.960;27.550;2023-03-04T08:25:26;97153.97;;;-0.68;79.21
69184;BME280;56291;53.960;27.550;2023-03-04T08:27:52;97146.22;;;-0.68;79.72
69184;BME280;56291;53.960;27.550;2023-03-04T08:31:02;97136.34;;;-0.63;78.98
69184;BME280;56291;53.960;27.550;2023-03-04T08:36:52;97127.41;;;-0.59;79.31
69184;BME280;56291;53.960;27.550;2023-03-04T08:50:07;97126.94;;;-0.53;78.78
69184;BME280;56291;53.960;27.550;2023-03-04T09:26:39;97122.06;;;0.09;76.26
69184;BME280;56291;53.960;27.550;2023-03-04T09:29:39;97122.06;;;0.09;76.68
69184;BME280;56291;53.960;27.550;2023-03-04T10:00:25;97085.47;;;0.56;75.19
69184;BME280;56291;53.960;27.550;2023-03-04T10:41:56;97034.75;;;1.25;71.26
69184;BME280;56291;53.960;27.550;2023-03-04T10:44:58;97002.69;;;1.16;74.08
69184;BME280;56291;53.960;27.550;2023-03-04T10:54:58;97020.31;;;1.61;72.53
69184;BME280;56291;53.960;27.550;2023-03-04T10:57:35;97027.44;;;1.69;67.56
69184;BME280;56291;53.960;27.550;2023-03-04T11:02:49;97038.75;;;1.58;69.24
69184;BME280;56291;53.960;27.550;2023-03-04T11:05:33;97043.63;;;1.51;71.43
69184;BME280;56291;53.960;27.550;2023-03-04T11:08:31;97045.44;;;1.61;73.10
69184;BME280;56291;53.960;27.550;2023-03-04T11:14:47;97040.66;;;1.56;72.60
69184;BME280;56291;53.960;27.550;2023-03-04T11:17:59;97060.97;;;1.70;72.49
69184;BME280;56291;53.960;27.550;2023-03-04T11:30:28;97050.19;;;1.75;72.85
69184;BME280;56291;53.960;27.550;2023-03-04T11:36:44;97041.03;;;2.00;71.02
69184;BME280;56291;53.960;27.550;2023-03-04T12:25:41;97030.81;;;1.79;74.28
69184;BME280;56291;53.960;27.550;2023-03-04T12:28:39;97024.53;;;2.11;75.36
69184;BME280;56291;53.960;27.550;2023-03-04T12:36:52;97002.09;;;2.30;73.63
69184;BME280;56291;53.960;27.550;2023-03-04T12:39:48;97019.78;;;1.97;74.54
69184;BME280;56291;53.960;27.550;2023-03-04T12:46:00;97023.19;;;1.58;71.58
69184;BME280;56291;53.960;27.550;2023-03-04T12:55:18;97085.84;;;2.02;71.50
69184;BME280;56291;53.960;27.550;2023-03-04T13:01:43;97106.38;;;1.55;72.20
69184;BME280;56291;53.960;27.550;2023-03-04T13:07:41;97119.00;;;0.88;70.31
69184;BME280;56291;53.960;27.550;2023-03-04T13:13:59;97103.13;;;0.72;70.05
69184;BME280;56291;53.960;27.550;2023-03-04T13:20:09;97062.97;;;0.46;71.21
69184;BME280;56291;53.960;27.550;2023-03-04T13:22:54;97056.25;;;0.65;73.50
69184;BME280;56291;53.960;27.550;2023-03-04T13:28:31;97053.75;;;0.94;71.83
69184;BME280;56291;53.960;27.550;2023-03-04T13:31:22;97047.53;;;0.76;73.14
69184;BME280;56291;53.960;27.550;2023-03-04T13:33:53;97055.41;;;0.64;71.53
69184;BME280;56291;53.960;27.550;2023-03-04T13:36:34;97055.22;;;0.77;73.41
69184;BME280;56291;53.960;27.550;2023-03-04T13:39:24;97066.38;;;0.78;72.43
69184;BME280;56291;53.960;27.550;2023-03-04T13:45:32;97035.41;;;1.07;72.48
69184;BME280;56291;53.960;27.550;2023-03-04T13:48:19;97035.13;;;1.10;73.06
69184;BME280;56291;53.960;27.550;2023-03-04T13:50:49;97048.09;;;1.20;72.81
69184;BME280;56291;53.960;27.550;2023-03-04T14:00:03;97061.50;;;0.84;69.40
69184;BME280;56291;53.960;27.550;2023-03-04T14:02:52;97084.78;;;0.84;69.86
69184;BME280;56291;53.960;27.550;2023-03-04T14:05:23;97061.78;;;0.91;72.02
69184;BME280;56291;53.960;27.550;2023-03-04T14:07:57;97068.78;;;1.10;72.34
69184;BME280;56291;53.960;27.550;2023-03-04T14:10:38;97054.50;;;1.16;70.87
69184;BME280;56291;53.960;27.550;2023-03-04T14:13:11;97054.19;;;1.09;70.36
69184;BME280;56291;53.960;27.550;2023-03-04T14:15:38;97057.53;;;0.80;69.19
69184;BME280;56291;53.960;27.550;2023-03-04T14:18:20;97061.38;;;0.86;70.94
69184;BME280;56291;53.960;27.550;2023-03-04T14:24:10;97049.84;;;1.10;69.38
69184;BME280;56291;53.960;27.550;2023-03-04T14:26:47;97047.66;;;1.05;68.33
69184;BME280;56291;53.960;27.550;2023-03-04T14:32:52;97058.44;;;0.70;68.87
69184;BME280;56291;53.960;27.550;2023-03-04T14:35:30;97066.31;;;0.68;68.51
69184;BME280;56291;53.960;27.550;2023-03-04T14:38:07;97055.94;;;0.99;70.35
69184;BME280;56291;53.960;27.550;2023-03-04T14:41:04;97058.00;;;1.05;70.42
69184;BME280;56291;53.960;27.550;2023-03-04T14:43:39;97057.31;;;1.03;70.60
69184;BME280;56291;53.960;27.550;2023-03-04T14:46:11;97062.00;;;1.19;70.59
69184;BME280;56291;53.960;27.550;2023-03-04T14:48:47;97068.16;;;1.18;70.45
69184;BME280;56291;53.960;27.550;2023-03-04T14:57:48;97093.34;;;0.54;68.81
69184;BME280;56291;53.960;27.550;2023-03-04T15:03:37;97095.34;;;0.50;70.09
69184;BME280;56291;53.960;27.550;2023-03-04T15:06:18;97087.88;;;0.47;68.11
69184;BME280;56291;53.960;27.550;2023-03-04T15:12:10;97113.47;;;0.08;67.62
69184;BME280;56291;53.960;27.550;2023-03-04T15:21:50;97041.00;;;-0.55;67.77
69184;BME280;56291;53.960;27.550;2023-03-04T15:24:53;97047.94;;;-0.56;69.01
69184;BME280;56291;53.960;27.550;2023-03-04T15:27:49;97041.41;;;-0.71;63.86
69184;BME280;56291;53.960;27.550;2023-03-04T15:30:27;97044.38;;;-0.43;68.71
69184;BME280;56291;53.960;27.550;2023-03-04T15:33:12;97052.41;;;-0.58;65.68
69184;BME280;56291;53.960;27.550;2023-03-04T15:39:08;97056.00;;;-0.93;67.64
69184;BME280;56291;53.960;27.550;2023-03-04T15:41:39;97065.63;;;-0.95;68.08
69184;BME280;56291;53.960;27.550;2023-03-04T15:44:33;97065.28;;;-1.13;68.14
69184;BME280;56291;53.960;27.550;2023-03-04T15:47:05;97061.06;;;-1.36;68.86
69184;BME280;56291;53.960;27.550;2023-03-04T15:49:36;97066.59;;;-1.30;69.07
69184;BME280;56291;53.960;27.550;2023-03-04T15:52:33;97061.88;;;-1.47;69.01
69184;BME280;56291;53.960;27.550;2023-03-04T15:58:29;97064.25;;;-1.56;67.62
69184;BME280;56291;53.960;27.550;2023-03-04T16:01:19;97064.94;;;-1.53;66.81
69184;BME280;56291;53.960;27.550;2023-03-04T16:03:48;97058.56;;;-1.83;68.91
69184;BME280;56291;53.960;27.550;2023-03-04T16:06:32;97063.13;;;-1.87;68.24
69184;BME280;56291;53.960;27.550;2023-03-04T16:12:23;97061.66;;;-2.14;68.40
69184;BME280;56291;53.960;27.550;2023-03-04T16:15:00;97061.34;;;-1.98;69.47
69184;BME280;56291;53.960;27.550;2023-03-04T16:17:40;97059.28;;;-2.17;68.69
69184;BME280;56291;53.960;27.550;2023-03-04T16:20:11;97060.38;;;-2.44;68.90
69184;BME280;56291;53.960;27.550;2023-03-04T16:22:52;97057.91;;;-2.45;69.00
69184;BME280;56291;53.960;27.550;2023-03-04T16:25:19;97059.09;;;-2.38;66.91
69184;BME280;56291;53.960;27.550;2023-03-04T16:30:45;97059.06;;;-2.73;68.62
69184;BME280;56291;53.960;27.550;2023-03-04T16:33:14;97069.25;;;-2.72;66.44
69184;BME280;56291;53.960;27.550;2023-03-04T16:36:25;97075.72;;;-2.66;69.25
69184;BME280;56291;53.960;27.550;2023-03-04T16:39:12;97071.94;;;-2.86;67.78
69184;BME280;56291;53.960;27.550;2023-03-04T16:42:07;97067.81;;;-3.26;67.14
69184;BME280;56291;53.960;27.550;2023-03-04T16:44:50;97074.16;;;-2.93;69.20
69184;BME280;56291;53.960;27.550;2023-03-04T16:47:26;97076.00;;;-2.95;69.83
69184;BME280;56291;53.960;27.550;2023-03-04T16:50:40;97071.31;;;-3.14;66.79
69184;BME280;56291;53.960;27.550;2023-03-04T16:52:48;97070.69;;;-3.18;67.56
69184;BME280;56291;53.960;27.550;2023-03-04T16:55:34;97065.25;;;-3.26;69.03
69184;BME280;56291;53.960;27.550;2023-03-04T16:58:13;97062.56;;;-3.24;69.04
69184;BME280;56291;53.960;27.550;2023-03-04T17:00:50;97076.25;;;-3.24;68.81
69184;BME280;56291;53.960;27.550;2023-03-04T17:06:19;97078.09;;;-3.26;69.72
69184;BME280;56291;53.960;27.550;2023-03-04T17:08:53;97069.06;;;-3.32;69.10
69184;BME280;56291;53.960;27.550;2023-03-04T17:11:22;97070.19;;;-3.36;68.70
69184;BME280;56291;53.960;27.550;2023-03-04T17:14:14;97060.09;;;-3.26;70.14
69184;BME280;56291;53.960;27.550;2023-03-04T17:16:46;97067.81;;;-3.26;69.83
69184;BME280;56291;53.960;27.550;2023-03-04T17:19:27;97066.38;;;-3.30;69.40
69184;BME280;56291;53.960;27.550;2023-03-04T17:21:56;97064.06;;;-3.59;69.31
69184;BME280;56291;53.960;27.550;2023-03-04T17:24:23;97073.81;;;-3.51;69.42
69184;BME280;56291;53.960;27.550;2023-03-04T17:26:52;97075.13;;;-3.46;68.75
69184;BME280;56291;53.960;27.550;2023-03-04T17:29:18;97063.53;;;-3.51;69.52
69184;BME280;56291;53.960;27.550;2023-03-04T17:31:46;97072.03;;;-3.51;68.78
69184;BME280;56291;53.960;27.550;2023-03-04T17:34:40;97060.53;;;-3.58;69.79
69184;BME280;56291;53.960;27.550;2023-03-04T17:37:14;97070.13;;;-3.60;69.99
69184;BME280;56291;53.960;27.550;2023-03-04T17:40:01;97062.41;;;-3.60;70.00
69184;BME280;56291;53.960;27.550;2023-03-04T17:42:47;97067.66;;;-3.62;69.42
69184;BME280;56291;53.960;27.550;2023-03-04T17:45:42;97059.53;;;-3.68;69.25
69184;BME280;56291;53.960;27.550;2023-03-04T17:51:12;97058.63;;;-3.80;69.34
69184;BME280;56291;53.960;27.550;2023-03-04T17:54:00;97049.75;;;-3.76;70.10
69184;BME280;56291;53.960;27.550;2023-03-04T17:56:34;97048.81;;;-3.62;70.20
69184;BME280;56291;53.960;27.550;2023-03-04T17:59:53;97054.38;;;-3.68;70.29
69184;BME280;56291;53.960;27.550;2023-03-04T18:02:23;97036.19;;;-3.78;70.83
69184;BME280;56291;53.960;27.550;2023-03-04T18:04:57;97030.72;;;-3.61;70.17
69184;BME280;56291;53.960;27.550;2023-03-04T18:07:37;97033.72;;;-3.67;70.37
69184;BME280;56291;53.960;27.550;2023-03-04T18:13:11;97033.72;;;-3.67;70.37
69184;BME280;56291;53.960;27.550;2023-03-04T18:16:08;97039.88;;;-3.69;70.59
69184;BME280;56291;53.960;27.550;2023-03-04T18:19:05;97038.75;;;-3.78;70.71
69184;BME280;56291;53.960;27.550;2023-03-04T18:21:49;97040.63;;;-3.80;71.42
69184;BME280;56291;53.960;27.550;2023-03-04T18:24:26;97040.53;;;-3.79;71.46
69184;BME280;56291;53.960;27.550;2023-03-04T18:27:00;97041.22;;;-3.76;71.46
69184;BME280;56291;53.960;27.550;2023-03-04T18:29:36;97035.78;;;-3.98;72.11
69184;BME280;56291;53.960;27.550;2023-03-04T18:32:26;97034.84;;;-3.84;72.00
69184;BME280;56291;53.960;27.550;2023-03-04T18:35:09;97033.09;;;-3.83;71.89
69184;BME280;56291;53.960;27.550;2023-03-04T18:37:59;97040.53;;;-3.79;71.92
69184;BME280;56291;53.960;27.550;2023-03-04T18:40:26;97039.69;;;-3.92;72.16
69184;BME280;56291;53.960;27.550;2023-03-04T18:43:32;97038.88;;;-3.92;72.63
69184;BME280;56291;53.960;27.550;2023-03-04T18:49:05;97040.91;;;-3.98;72.65
69184;BME280;56291;53.960;27.550;2023-03-04T18:52:00;97037.13;;;-3.92;72.59
69184;BME280;56291;53.960;27.550;2023-03-04T18:55:11;97039.78;;;-3.93;73.23
69184;BME280;56291;53.960;27.550;2023-03-04T18:58:06;96991.78;;;-4.19;72.81
69184;BME280;56291;53.960;27.550;2023-03-04T19:00:46;97036.19;;;-3.91;72.70
69184;BME280;56291;53.960;27.550;2023-03-04T19:03:12;97033.00;;;-3.94;72.92
69184;BME280;56291;53.960;27.550;2023-03-04T19:05:39;97042.88;;;-3.88;72.73
69184;BME280;56291;53.960;27.550;2023-03-04T19:08:06;97033.09;;;-3.96;73.23
69184;BME280;56291;53.960;27.550;2023-03-04T19:10:33;97023.47;;;-4.05;73.05
69184;BME280;56291;53.960;27.550;2023-03-04T19:12:59;97026.63;;;-3.89;72.28
69184;BME280;56291;53.960;27.550;2023-03-04T19:15:26;97025.09;;;-3.91;72.63
69184;BME280;56291;53.960;27.550;2023-03-04T19:17:55;97019.66;;;-4.00;72.64
69184;BME280;56291;53.960;27.550;2023-03-04T19:20:21;97025.41;;;-3.96;73.01
69184;BME280;56291;53.960;27.550;2023-03-04T19:22:47;97024.38;;;-3.93;72.74
69184;BME280;56291;53.960;27.550;2023-03-04T19:25:21;97028.69;;;-3.94;73.13
69184;BME280;56291;53.960;27.550;2023-03-04T19:27:50;97047.19;;;-3.89;72.79
69184;BME280;56291;53.960;27.550;2023-03-04T19:30:20;97037.72;;;-4.01;73.23
69184;BME280;56291;53.960;27.550;2023-03-04T19:32:48;97033.22;;;-3.98;73.06
69184;BME280;56291;53.960;27.550;2023-03-04T19:35:25;97033.41;;;-4.01;73.35
69184;BME280;56291;53.960;27.550;2023-03-04T19:37:58;97051.81;;;-3.94;73.06
69184;BME280;56291;53.960;27.550;2023-03-04T19:47:01;97047.19;;;-3.89;73.05
69184;BME280;56291;53.960;27.550;2023-03-04T19:49:37;97057.25;;;-3.99;73.70
69184;BME280;56291;53.960;27.550;2023-03-04T19:55:35;97044.59;;;-3.89;73.24
69184;BME280;56291;53.960;27.550;2023-03-04T19:58:27;97048.13;;;-3.90;73.41
69184;BME280;56291;53.960;27.550;2023-03-04T20:00:55;97052.03;;;-3.84;72.86
69184;BME280;56291;53.960;27.550;2023-03-04T20:03:25;97048.72;;;-3.86;73.55
69184;BME280;56291;53.960;27.550;2023-03-04T20:06:10;97053.88;;;-3.86;72.88
69184;BME280;56291;53.960;27.550;2023-03-04T20:08:49;97051.81;;;-3.94;73.79
69184;BME280;56291;53.960;27.550;2023-03-04T20:17:55;97039.78;;;-3.93;74.55
69184;BME280;56291;53.960;27.550;2023-03-04T20:21:05;97041.66;;;-3.96;74.41
69184;BME280;56291;53.960;27.550;2023-03-04T20:24:02;97035.06;;;-3.87;73.91
69184;BME280;56291;53.960;27.550;2023-03-04T20:26:52;97039.78;;;-3.93;74.59
69184;BME280;56291;53.960;27.550;2023-03-04T20:29:18;97028.97;;;-3.99;74.78
69184;BME280;56291;53.960;27.550;2023-03-04T20:32:00;97037.63;;;-4.00;75.12
69184;BME280;56291;53.960;27.550;2023-03-04T20:34:47;97035.97;;;-4.01;75.18
69184;BME280;56291;53.960;27.550;2023-03-04T20:37:27;97039.38;;;-4.00;75.25
69184;BME280;56291;53.960;27.550;2023-03-04T20:40:07;97030.44;;;-3.94;75.14
69184;BME280;56291;53.960;27.550;2023-03-04T20:42:36;97052.00;;;-3.97;74.84
69184;BME280;56291;53.960;27.550;2023-03-04T20:45:04;97050.28;;;-3.97;75.43
69184;BME280;56291;53.960;27.550;2023-03-04T20:47:38;97052.31;;;-3.89;74.52
69184;BME280;56291;53.960;27.550;2023-03-04T20:50:08;97044.28;;;-3.97;75.32
69184;BME280;56291;53.960;27.550;2023-03-04T20:52:37;97053.13;;;-4.01;75.29
69184;BME280;56291;53.960;27.550;2023-03-04T20:55:07;97051.19;;;-3.98;75.35
69184;BME280;56291;53.960;27.550;2023-03-04T20:57:38;97063.00;;;-3.95;75.09
69184;BME280;56291;53.960;27.550;2023-03-04T21:00:05;97058.56;;;-3.93;75.52
69184;BME280;56291;53.960;27.550;2023-03-04T21:02:33;97060.44;;;-3.95;76.17
69184;BME280;56291;53.960;27.550;2023-03-04T21:05:02;97050.16;;;-3.95;76.12
69184;BME280;56291;53.960;27.550;2023-03-04T21:07:29;97047.50;;;-3.93;75.28
69184;BME280;56291;53.960;27.550;2023-03-04T21:09:55;97064.44;;;-3.91;75.27
69184;BME280;56291;53.960;27.550;2023-03-04T21:12:37;97063.72;;;-3.93;75.50
69184;BME280;56291;53.960;27.550;2023-03-04T21:15:09;97062.59;;;-3.89;75.22
69184;BME280;56291;53.960;27.550;2023-03-04T21:17:53;97055.72;;;-3.88;75.12
69184;BME280;56291;53.960;27.550;2023-03-04T21:20:22;97070.28;;;-3.89;75.21
69184;BME280;56291;53.960;27.550;2023-03-04T21:22:48;97060.22;;;-3.79;74.86
69184;BME280;56291;53.960;27.550;2023-03-04T21:25:14;97063.53;;;-3.90;75.28
69184;BME280;56291;53.960;27.550;2023-03-04T21:27:47;97055.19;;;-3.93;76.57
69184;BME280;56291;53.960;27.550;2023-03-04T21:30:22;97063.59;;;-3.91;76.04
69184;BME280;56291;53.960;27.550;2023-03-04T21:32:48;97055.84;;;-3.90;75.71
69184;BME280;56291;53.960;27.550;2023-03-04T21:35:15;97079.66;;;-3.88;75.70
69184;BME280;56291;53.960;27.550;2023-03-04T21:37:44;97071.25;;;-3.90;76.73
69184;BME280;56291;53.960;27.550;2023-03-04T21:43:19;97079.75;;;-3.89;76.31
69184;BME280;56291;53.960;27.550;2023-03-04T21:45:58;97082.22;;;-3.88;76.72